Terminal Aerodrome Forecast
Issued by NWS

Current Version | Previous Version | Text Only | Print | Product List | Glossary On
Versions: 1 2 3 4 5 6 7 8 9 10 11 12 13 14 15 16
401
FTUS46 KEKA 260650 AAA
TAFUKI
TAF AMD
KUKI 260650Z 2607/2706 15003KT P6SM VCSH SCT080
     FM261200 00000KT P6SM BKN010
     FM261700 13006KT P6SM SKC=

USA.gov is the U.S. government's official web portal to all federal, state and local government web resources and services.